Time;durP1;ratioP1;P1;durP2;ratioP2;P2;SDS_P1;SDS_P2;PMS_P1;PMS_P2;Temp;Humidity;BMP_temperature;BMP_pressure;BME280_temperature;BME280_humidity;BME280_pressure;Samples;Min_cycle;Max_cycle;Signal;HPM_P1;HPM_P2
2023/08/06 05:16:18;;;;;;;;;;;;;;;;;;1478117;26;20531;-49
2023/08/06 05:18:43;;;;;;;;;;;;;;;;;;4989537;28;19928;-46
2023/08/06 05:21:09;;;;;;;;;;;;;;;;;;4989924;28;20011;-48
2023/08/06 05:23:35;;;;;;;;;;;;;;;;;;4990229;28;19909;-48
2023/08/06 05:26:01;;;;;;;;;;;;;;;;;;4989261;28;20056;-48
2023/08/06 05:28:27;;;;;;;;;;;;;;;;;;4989838;28;19941;-45
2023/08/06 05:30:53;;;;;;;;;;;;;;;;;;4989539;28;20461;-46
2023/08/06 05:33:19;;;;;;;;;;;;;;;;;;4989919;28;20395;-46
2023/08/06 05:35:45;;;;;;;;;;;;;;;;;;4989554;28;19941;-47
2023/08/06 05:38:11;;;;;;;;;;;;;;;;;;4989422;28;20265;-46
2023/08/06 05:40:37;;;;;;;;;;;;;;;;;;4989766;28;19910;-46
2023/08/06 05:43:03;;;;;;;;;;;;;;;;;;4989707;28;19910;-46
2023/08/06 05:45:28;;;;;;;;;;;;;;;;;;4989198;28;19961;-46
2023/08/06 05:47:57;;;;;;;;;;;;;;;;;;4988916;28;19992;-46
2023/08/06 05:50:23;;;;;;;;;;;;;;;;;;4991077;28;19910;-47
2023/08/06 05:52:49;;;;;;;;;;;;;;;;;;4991079;28;19910;-47
2023/08/06 05:55:15;;;;;;;;;;;;;;;;;;4990381;28;19917;-49
2023/08/06 05:57:41;;;;;;;;;;;;;;;;;;4987807;28;19914;-47
2023/08/06 06:00:07;;;;;;;;;;;;;;;;;;4988811;28;20149;-45
2023/08/06 06:02:33;;;;;;;;;;;;;;;;;;4989331;28;20364;-48
2023/08/06 06:04:59;;;;;;;;;;;;;;;;;;4989483;28;20021;-46
2023/08/06 06:07:25;;;;;;;;;;;;;;;;;;4989307;28;20391;-45
2023/08/06 06:09:50;;;;;;;;;;;;;;;;;;4989273;28;19956;-46
2023/08/06 06:12:16;;;;;;;;;;;;;;;;;;4989598;28;19956;-48
2023/08/06 06:14:42;;;;;;;;;;;;;;;;;;4992902;28;19910;-46
2023/08/06 06:17:08;;;;;;;;;;;;;;;;;;4992856;28;19961;-47
2023/08/06 06:19:34;;;;;;;;;;;;;;;;;;4992430;28;19918;-47
2023/08/06 06:22:00;;;;;;;;;;;;;;;;;;4991796;28;19913;-44
2023/08/06 06:24:26;;;;;;;;;;;;;;;;;;4985188;28;20280;-46
2023/08/06 06:26:52;;;;;;;;;;;;;;;;;;4974320;28;19910;-46
2023/08/06 06:29:17;;;;;;;;;;;;;;;;;;4985023;28;19952;-48
2023/08/06 06:31:43;;;;;;;;;;;;;;;;;;4982799;28;19915;-44
2023/08/06 06:34:09;;;;;;;;;;;;;;;;;;4978319;28;19914;-49
2023/08/06 06:36:35;;;;;;;;;;;;;;;;;;4993038;28;20070;-49
2023/08/06 06:39:01;;;;;;;;;;;;;;;;;;4992604;28;19963;-48
2023/08/06 06:41:29;;;;;;;;;;;;;;;;;;4992335;28;19944;-45
2023/08/06 06:43:55;;;;;;;;;;;;;;;;;;4980277;28;19914;-46
2023/08/06 06:46:21;;;;;;;;;;;;;;;;;;4991770;28;20384;-45
2023/08/06 06:48:47;;;;;;;;;;;;;;;;;;4981734;28;19977;-46
2023/08/06 06:51:13;;;;;;;;;;;;;;;;;;4992856;28;20001;-45
2023/08/06 06:53:39;;;;;;;;;;;;;;;;;;4991601;28;19921;-46
2023/08/06 06:56:04;;;;;;;;;;;;;;;;;;4986164;28;19942;-47
2023/08/06 06:58:30;;;;;;;;;;;;;;;;;;4973463;28;20435;-47
2023/08/06 07:00:56;;;;;;;;;;;;;;;;;;4986051;28;19914;-48
2023/08/06 07:03:22;;;;;;;;;;;;;;;;;;4991259;28;19914;-44
2023/08/06 07:05:48;;;;;;;;;;;;;;;;;;4989814;28;19965;-47
2023/08/06 07:08:14;;;;;;;;;;;;;;;;;;4982251;28;19910;-46
2023/08/06 07:10:40;;;;;;;;;;;;;;;;;;4973104;28;19914;-48
2023/08/06 07:13:06;;;;;;;;;;;;;;;;;;4990873;28;20350;-47
2023/08/06 07:15:32;;;;;;;;;;;;;;;;;;4989246;28;19961;-45
2023/08/06 07:17:58;;;;;;;;;;;;;;;;;;4992608;28;20376;-46
2023/08/06 07:20:23;;;;;;;;;;;;;;;;;;4989780;28;19976;-49
2023/08/06 07:22:50;;;;;;;;;;;;;;;;;;4992795;28;19980;-46
2023/08/06 07:25:15;;;;;;;;;;;;;;;;;;4987415;28;20298;-46
2023/08/06 07:27:42;;;;;;;;;;;;;;;;;;4992868;28;19910;-49
2023/08/06 07:30:07;;;;;;;;;;;;;;;;;;4992599;28;19914;-46
2023/08/06 07:32:33;;;;;;;;;;;;;;;;;;4990696;28;19910;-46
2023/08/06 07:35:00;;;;;;;;;;;;;;;;;;4991205;28;20120;-40
2023/08/06 07:37:28;;;;;;;;;;;;;;;;;;4991191;28;19945;-40
2023/08/06 07:39:54;;;;;;;;;;;;;;;;;;4992537;28;19914;-40
2023/08/06 07:42:20;;;;;;;;;;;;;;;;;;4993161;28;19917;-40
2023/08/06 07:44:46;;;;;;;;;;;;;;;;;;4993016;28;20008;-40
2023/08/06 07:47:12;;;;;;;;;;;;;;;;;;4992030;28;20005;-40
2023/08/06 07:49:38;;;;;;;;;;;;;;;;;;4991906;28;19917;-39
2023/08/06 07:52:04;;;;;;;;;;;;;;;;;;4984369;28;19925;-40
2023/08/06 07:54:30;;;;;;;;;;;;;;;;;;4992120;28;19918;-39
2023/08/06 07:56:56;;;;;;;;;;;;;;;;;;4993010;28;20372;-40
2023/08/06 07:59:22;;;;;;;;;;;;;;;;;;4981615;28;19914;-39
2023/08/06 08:01:47;;;;;;;;;;;;;;;;;;4973498;28;19917;-40
2023/08/06 08:04:13;;;;;;;;;;;;;;;;;;4973460;28;20035;-39
2023/08/06 08:06:39;;;;;;;;;;;;;;;;;;4973317;28;19917;-39
2023/08/06 08:09:05;;;;;;;;;;;;;;;;;;4973267;28;20563;-40
2023/08/06 08:11:31;;;;;;;;;;;;;;;;;;4973347;28;20029;-39
2023/08/06 08:13:57;;;;;;;;;;;;;;;;;;4973208;28;19973;-40
2023/08/06 08:16:23;;;;;;;;;;;;;;;;;;4973205;28;19921;-40
2023/08/06 08:18:49;;;;;;;;;;;;;;;;;;4973163;28;20419;-39
2023/08/06 08:21:14;;;;;;;;;;;;;;;;;;4973314;28;19910;-40
2023/08/06 08:23:42;;;;;;;;;;;;;;;;;;4976089;28;19910;-40
2023/08/06 08:26:08;;;;;;;;;;;;;;;;;;4992519;28;20005;-39
2023/08/06 08:28:33;;;;;;;;;;;;;;;;;;4992354;28;19941;-40
2023/08/06 08:30:59;;;;;;;;;;;;;;;;;;4991757;28;20367;-40
2023/08/06 08:33:25;;;;;;;;;;;;;;;;;;4991337;28;19910;-39
2023/08/06 08:35:51;;;;;;;;;;;;;;;;;;4988973;28;20372;-39
2023/08/06 08:38:17;;;;;;;;;;;;;;;;;;4992655;28;20400;-40
2023/08/06 08:40:43;;;;;;;;;;;;;;;;;;4990503;28;19914;-40
2023/08/06 08:43:09;;;;;;;;;;;;;;;;;;4991538;28;20274;-40
2023/08/06 08:45:35;;;;;;;;;;;;;;;;;;4990308;28;19921;-40
2023/08/06 08:48:01;;;;;;;;;;;;;;;;;;4991462;28;19910;-40
2023/08/06 08:50:27;;;;;;;;;;;;;;;;;;4991497;28;19992;-40
2023/08/06 08:52:52;;;;;;;;;;;;;;;;;;4990283;28;19964;-40
2023/08/06 08:55:20;;;;;;;;;;;;;;;;;;4989881;28;20001;-40
2023/08/06 08:57:46;;;;;;;;;;;;;;;;;;4991619;28;19917;-40
2023/08/06 09:00:14;;;;;;;;;;;;;;;;;;4991414;28;19910;-39
2023/08/06 09:02:40;;;;;;;;;;;;;;;;;;4990997;28;19956;-40
2023/08/06 09:05:06;;;;;;;;;;;;;;;;;;4991012;28;19968;-40
2023/08/06 09:07:31;;;;;;;;;;;;;;;;;;4991325;28;19910;-40
2023/08/06 09:09:57;;;;;;;;;;;;;;;;;;4991224;28;19984;-40
2023/08/06 09:12:23;;;;;;;;;;;;;;;;;;4991170;28;19909;-40
2023/08/06 09:14:49;;;;;;;;;;;;;;;;;;4991070;28;20381;-40
2023/08/06 09:17:19;;;;;;;;;;;;;;;;;;4991297;28;19913;-40
2023/08/06 09:19:46;;;;;;;;;;;;;;;;;;4991298;28;19906;-40
2023/08/06 09:22:13;;;;;;;;;;;;;;;;;;4991619;28;20293;-40
2023/08/06 09:24:40;;;;;;;;;;;;;;;;;;4991205;28;19913;-40
2023/08/06 09:27:06;;;;;;;;;;;;;;;;;;4990859;28;20353;-40
2023/08/06 09:29:32;;;;;;;;;;;;;;;;;;4990788;28;19957;-40
2023/08/06 09:31:58;;;;;;;;;;;;;;;;;;4990950;28;19910;-40
2023/08/06 09:34:24;;;;;;;;;;;;;;;;;;4988237;28;19913;-40
2023/08/06 09:36:50;;;;;;;;;;;;;;;;;;4986957;28;19965;-40
2023/08/06 09:39:16;;;;;;;;;;;;;;;;;;4990826;28;19937;-40
2023/08/06 09:41:42;;;;;;;;;;;;;;;;;;4991038;28;20097;-40
2023/08/06 09:44:08;;;;;;;;;;;;;;;;;;4985263;28;20008;-40
2023/08/06 09:46:34;;;;;;;;;;;;;;;;;;4984219;28;19914;-40
2023/08/06 09:49:01;;;;;;;;;;;;;;;;;;4975885;28;19914;-40
2023/08/06 09:51:27;;;;;;;;;;;;;;;;;;4989691;28;19913;-40
2023/08/06 09:53:53;;;;;;;;;;;;;;;;;;4993828;28;19914;-40
2023/08/06 09:56:19;;;;;;;;;;;;;;;;;;4993739;28;19964;-40
2023/08/06 09:58:45;;;;;;;;;;;;;;;;;;4988784;28;20400;-40
2023/08/06 10:01:10;;;;;;;;;;;;;;;;;;4989445;28;19913;-40
2023/08/06 10:03:36;;;;;;;;;;;;;;;;;;4992569;28;20015;-40
2023/08/06 10:06:06;;;;;;;;;;;;;;;;;;4994507;28;20317;-40
2023/08/06 10:08:32;;;;;;;;;;;;;;;;;;4991265;28;20380;-40
2023/08/06 10:10:58;;;;;;;;;;;;;;;;;;4978418;28;20071;-40
2023/08/06 10:13:24;;;;;;;;;;;;;;;;;;4974677;28;19918;-40
2023/08/06 10:15:50;;;;;;;;;;;;;;;;;;4992636;28;20004;-40
2023/08/06 10:18:20;;;;;;;;;;;;;;;;;;4993562;28;20389;-40
2023/08/06 10:20:46;;;;;;;;;;;;;;;;;;4993747;28;19916;-40
2023/08/06 10:23:13;;;;;;;;;;;;;;;;;;4992325;28;19918;-40
2023/08/06 10:25:39;;;;;;;;;;;;;;;;;;4991974;28;20140;-39
2023/08/06 10:28:05;;;;;;;;;;;;;;;;;;4993237;28;19918;-40
2023/08/06 10:30:31;;;;;;;;;;;;;;;;;;4993631;28;19941;-40
2023/08/06 10:33:00;;;;;;;;;;;;;;;;;;4992916;28;19914;-40
2023/08/06 10:35:25;;;;;;;;;;;;;;;;;;4993735;28;19910;-40
2023/08/06 10:37:51;;;;;;;;;;;;;;;;;;4992378;28;19968;-40
2023/08/06 10:40:17;;;;;;;;;;;;;;;;;;4993256;28;19921;-40
2023/08/06 10:42:43;;;;;;;;;;;;;;;;;;4994031;28;19932;-40
2023/08/06 10:45:09;;;;;;;;;;;;;;;;;;4993562;28;19913;-40
2023/08/06 10:47:35;;;;;;;;;;;;;;;;;;4993497;28;20273;-40
2023/08/06 10:50:02;;;;;;;;;;;;;;;;;;4992450;28;20412;-40
2023/08/06 10:52:28;;;;;;;;;;;;;;;;;;4992644;28;19960;-40
2023/08/06 10:54:54;;;;;;;;;;;;;;;;;;4993416;28;19964;-40
2023/08/06 10:57:20;;;;;;;;;;;;;;;;;;4978096;28;19917;-40
2023/08/06 10:59:46;;;;;;;;;;;;;;;;;;4979881;28;19913;-41
2023/08/06 11:02:12;;;;;;;;;;;;;;;;;;4991682;28;19918;-40
2023/08/06 11:04:38;;;;;;;;;;;;;;;;;;4975631;28;19918;-41
2023/08/06 11:07:04;;;;;;;;;;;;;;;;;;4991467;28;20012;-41
2023/08/06 11:09:30;;;;;;;;;;;;;;;;;;4982250;28;19985;-40
2023/08/06 11:11:56;;;;;;;;;;;;;;;;;;4991154;28;20016;-40
2023/08/06 11:14:22;;;;;;;;;;;;;;;;;;4989607;28;20000;-40
2023/08/06 11:16:47;;;;;;;;;;;;;;;;;;4989471;28;19956;-41
2023/08/06 11:19:15;;;;;;;;;;;;;;;;;;4988916;28;19917;-41
2023/08/06 11:21:43;;;;;;;;;;;;;;;;;;4989399;28;20361;-40
2023/08/06 11:24:09;;;;;;;;;;;;;;;;;;4989593;28;19914;-40
2023/08/06 11:26:35;;;;;;;;;;;;;;;;;;4989333;28;20443;-40
2023/08/06 11:29:01;;;;;;;;;;;;;;;;;;4989757;28;20373;-40
2023/08/06 11:31:27;;;;;;;;;;;;;;;;;;4989803;28;20004;-41
2023/08/06 11:33:53;;;;;;;;;;;;;;;;;;4989779;28;20433;-40
2023/08/06 11:36:19;;;;;;;;;;;;;;;;;;4990159;28;20377;-41
2023/08/06 11:38:45;;;;;;;;;;;;;;;;;;4990317;28;19917;-41
2023/08/06 11:41:10;;;;;;;;;;;;;;;;;;4989152;28;20392;-40
2023/08/06 11:43:36;;;;;;;;;;;;;;;;;;4989590;28;19914;-41
2023/08/06 11:46:02;;;;;;;;;;;;;;;;;;4989293;28;20372;-41
2023/08/06 11:48:28;;;;;;;;;;;;;;;;;;4989623;28;19997;-40
2023/08/06 11:50:54;;;;;;;;;;;;;;;;;;4988967;28;20396;-42
2023/08/06 11:53:20;;;;;;;;;;;;;;;;;;4989573;28;19923;-41
2023/08/06 11:55:46;;;;;;;;;;;;;;;;;;4989607;28;20419;-41
2023/08/06 11:58:12;;;;;;;;;;;;;;;;;;4989369;28;19932;-41
2023/08/06 12:00:38;;;;;;;;;;;;;;;;;;4987616;28;20380;-40
2023/08/06 12:03:04;;;;;;;;;;;;;;;;;;4989120;28;19957;-41
2023/08/06 12:05:30;;;;;;;;;;;;;;;;;;4989450;28;19957;-41
2023/08/06 12:07:56;;;;;;;;;;;;;;;;;;4989086;28;19960;-40
2023/08/06 12:10:22;;;;;;;;;;;;;;;;;;4988751;28;19909;-41
2023/08/06 12:12:48;;;;;;;;;;;;;;;;;;4989546;28;20384;-41
2023/08/06 12:15:14;;;;;;;;;;;;;;;;;;4988998;28;19910;-41
2023/08/06 12:17:39;;;;;;;;;;;;;;;;;;4988438;28;20424;-41
2023/08/06 12:20:05;;;;;;;;;;;;;;;;;;4988324;28;20012;-41
2023/08/06 12:22:34;;;;;;;;;;;;;;;;;;4988120;28;19996;-41
2023/08/06 12:25:00;;;;;;;;;;;;;;;;;;4987968;28;19933;-40
2023/08/06 12:27:26;;;;;;;;;;;;;;;;;;4986597;28;19914;-40
2023/08/06 12:29:52;;;;;;;;;;;;;;;;;;4987890;28;19913;-40
2023/08/06 12:32:19;;;;;;;;;;;;;;;;;;4988611;28;19972;-40
2023/08/06 12:34:45;;;;;;;;;;;;;;;;;;4987982;28;19969;-41
2023/08/06 12:37:10;;;;;;;;;;;;;;;;;;4987626;28;19914;-40
2023/08/06 12:39:36;;;;;;;;;;;;;;;;;;4987665;28;19941;-41
2023/08/06 12:42:02;;;;;;;;;;;;;;;;;;4987751;28;19964;-41
2023/08/06 12:44:28;;;;;;;;;;;;;;;;;;4987649;28;19906;-41
2023/08/06 12:46:54;;;;;;;;;;;;;;;;;;4987629;28;19910;-41
2023/08/06 12:49:24;;;;;;;;;;;;;;;;;;4988500;28;20004;-41
2023/08/06 12:51:50;;;;;;;;;;;;;;;;;;4987987;28;20447;-41
2023/08/06 12:54:16;;;;;;;;;;;;;;;;;;4987832;28;19914;-41
2023/08/06 12:56:42;;;;;;;;;;;;;;;;;;4987592;28;19910;-41
2023/08/06 12:59:08;;;;;;;;;;;;;;;;;;4987581;28;19945;-41
2023/08/06 13:01:34;;;;;;;;;;;;;;;;;;4987602;28;19988;-41
2023/08/06 13:03:59;;;;;;;;;;;;;;;;;;4987242;28;19928;-41
2023/08/06 13:06:25;;;;;;;;;;;;;;;;;;4987382;28;19942;-41
2023/08/06 13:08:51;;;;;;;;;;;;;;;;;;4988306;28;19910;-40
2023/08/06 13:11:18;;;;;;;;;;;;;;;;;;4987287;28;19977;-41
2023/08/06 13:13:44;;;;;;;;;;;;;;;;;;4986427;28;19910;-41
2023/08/06 13:16:10;;;;;;;;;;;;;;;;;;4987748;28;19983;-41
2023/08/06 13:18:36;;;;;;;;;;;;;;;;;;4926049;28;1773006;-41
2023/08/06 13:21:02;;;;;;;;;;;;;;;;;;4988953;28;19957;-41
2023/08/06 13:23:28;;;;;;;;;;;;;;;;;;4992650;28;19910;-41
2023/08/06 13:25:54;;;;;;;;;;;;;;;;;;4992036;28;19962;-41
2023/08/06 13:28:20;;;;;;;;;;;;;;;;;;4990758;28;19930;-41
2023/08/06 13:30:46;;;;;;;;;;;;;;;;;;4992059;28;20405;-42
2023/08/06 13:33:12;;;;;;;;;;;;;;;;;;4991957;28;19916;-41
2023/08/06 13:35:38;;;;;;;;;;;;;;;;;;4992048;28;20389;-41
2023/08/06 13:38:04;;;;;;;;;;;;;;;;;;4991698;28;20032;-41
2023/08/06 13:40:30;;;;;;;;;;;;;;;;;;4992154;28;19921;-41
2023/08/06 13:42:56;;;;;;;;;;;;;;;;;;4991829;28;20234;-41
2023/08/06 13:45:22;;;;;;;;;;;;;;;;;;4991862;28;19914;-41
2023/08/06 13:47:48;;;;;;;;;;;;;;;;;;4991496;28;20372;-41
2023/08/06 13:50:13;;;;;;;;;;;;;;;;;;4991576;28;19910;-40
2023/08/06 13:52:39;;;;;;;;;;;;;;;;;;4991443;28;20551;-42
2023/08/06 13:55:05;;;;;;;;;;;;;;;;;;4991729;28;19913;-41
2023/08/06 13:57:31;;;;;;;;;;;;;;;;;;4992365;28;20195;-41
2023/08/06 13:59:57;;;;;;;;;;;;;;;;;;4991405;28;19909;-41
2023/08/06 14:02:23;;;;;;;;;;;;;;;;;;4991396;28;20376;-41
2023/08/06 14:04:49;;;;;;;;;;;;;;;;;;4991159;28;20300;-41
2023/08/06 14:07:15;;;;;;;;;;;;;;;;;;4991236;28;19910;-41
2023/08/06 14:09:42;;;;;;;;;;;;;;;;;;4991176;28;20266;-42
2023/08/06 14:12:08;;;;;;;;;;;;;;;;;;4991256;28;19910;-41
2023/08/06 14:14:34;;;;;;;;;;;;;;;;;;4991919;28;20172;-41
2023/08/06 14:17:00;;;;;;;;;;;;;;;;;;4991045;28;19960;-41
2023/08/06 14:19:25;;;;;;;;;;;;;;;;;;4991156;28;19973;-41
2023/08/06 14:21:52;;;;;;;;;;;;;;;;;;4991016;28;19949;-42
2023/08/06 14:24:17;;;;;;;;;;;;;;;;;;4991574;28;20293;-42
2023/08/06 14:26:43;;;;;;;;;;;;;;;;;;4991034;28;19914;-41
2023/08/06 14:29:09;;;;;;;;;;;;;;;;;;4990789;28;20196;-40
2023/08/06 14:31:35;;;;;;;;;;;;;;;;;;4991551;28;19917;-41
2023/08/06 14:34:01;;;;;;;;;;;;;;;;;;4990173;28;20340;-41
2023/08/06 14:36:27;;;;;;;;;;;;;;;;;;4990957;28;19996;-41
2023/08/06 14:38:53;;;;;;;;;;;;;;;;;;4990546;28;19984;-42
2023/08/06 14:41:19;;;;;;;;;;;;;;;;;;4990691;28;19917;-41
2023/08/06 14:43:45;;;;;;;;;;;;;;;;;;4990338;28;19910;-41
2023/08/06 14:46:11;;;;;;;;;;;;;;;;;;4990720;28;19921;-42
2023/08/06 14:48:37;;;;;;;;;;;;;;;;;;4990518;28;19957;-41
2023/08/06 14:51:03;;;;;;;;;;;;;;;;;;4991323;28;20512;-41
2023/08/06 14:53:28;;;;;;;;;;;;;;;;;;4990625;28;20258;-41
2023/08/06 14:55:54;;;;;;;;;;;;;;;;;;4990501;28;19910;-41
2023/08/06 14:58:20;;;;;;;;;;;;;;;;;;4990318;28;19945;-41
2023/08/06 15:00:46;;;;;;;;;;;;;;;;;;4990424;28;19910;-41
2023/08/06 15:03:12;;;;;;;;;;;;;;;;;;4990042;28;19964;-41
2023/08/06 15:05:38;;;;;;;;;;;;;;;;;;4990196;28;19914;-41
2023/08/06 15:08:04;;;;;;;;;;;;;;;;;;4990673;28;19913;-42
2023/08/06 15:10:30;;;;;;;;;;;;;;;;;;4989094;28;19976;-41
2023/08/06 15:12:56;;;;;;;;;;;;;;;;;;4990509;28;19917;-42
2023/08/06 15:15:22;;;;;;;;;;;;;;;;;;4989929;28;20400;-41
2023/08/06 15:17:48;;;;;;;;;;;;;;;;;;4989805;28;19922;-42
2023/08/06 15:20:14;;;;;;;;;;;;;;;;;;4990756;28;19917;-41
2023/08/06 15:22:39;;;;;;;;;;;;;;;;;;4989830;28;19936;-41
2023/08/06 15:25:05;;;;;;;;;;;;;;;;;;4989960;28;20013;-43
2023/08/06 15:27:32;;;;;;;;;;;;;;;;;;4989917;28;20415;-43
2023/08/06 15:29:58;;;;;;;;;;;;;;;;;;4989833;28;19917;-42
2023/08/06 15:32:24;;;;;;;;;;;;;;;;;;4989820;28;19910;-42
2023/08/06 15:34:50;;;;;;;;;;;;;;;;;;4989615;28;19914;-42
2023/08/06 15:37:17;;;;;;;;;;;;;;;;;;4990229;28;19910;-41
2023/08/06 15:39:43;;;;;;;;;;;;;;;;;;4989918;28;20005;-41
2023/08/06 15:42:08;;;;;;;;;;;;;;;;;;4989640;28;19910;-41
2023/08/06 15:44:34;;;;;;;;;;;;;;;;;;4988906;28;20257;-41
2023/08/06 15:47:00;;;;;;;;;;;;;;;;;;4990011;28;19920;-41
2023/08/06 15:49:26;;;;;;;;;;;;;;;;;;4989224;28;19945;-41
2023/08/06 15:51:52;;;;;;;;;;;;;;;;;;4989226;28;19910;-42
2023/08/06 15:54:18;;;;;;;;;;;;;;;;;;4989266;28;19932;-41
2023/08/06 15:56:44;;;;;;;;;;;;;;;;;;4989984;28;19945;-41
2023/08/06 15:59:10;;;;;;;;;;;;;;;;;;4988906;28;19960;-41
2023/08/06 16:01:36;;;;;;;;;;;;;;;;;;4989199;28;19910;-41
2023/08/06 16:04:02;;;;;;;;;;;;;;;;;;4989071;28;20282;-42
2023/08/06 16:06:28;;;;;;;;;;;;;;;;;;4989035;28;19914;-43
2023/08/06 16:08:54;;;;;;;;;;;;;;;;;;4988856;28;19909;-42
2023/08/06 16:11:20;;;;;;;;;;;;;;;;;;4988963;28;20294;-42
2023/08/06 16:13:45;;;;;;;;;;;;;;;;;;4989531;28;20076;-41
2023/08/06 16:16:11;;;;;;;;;;;;;;;;;;4988827;28;20411;-42
2023/08/06 16:18:37;;;;;;;;;;;;;;;;;;4987390;28;20100;-41
2023/08/06 16:21:03;;;;;;;;;;;;;;;;;;4988811;28;20304;-41
2023/08/06 16:23:29;;;;;;;;;;;;;;;;;;4988792;28;19910;-41
2023/08/06 16:25:55;;;;;;;;;;;;;;;;;;4988770;28;19914;-41
2023/08/06 16:28:21;;;;;;;;;;;;;;;;;;4988645;28;19941;-41
2023/08/06 16:30:47;;;;;;;;;;;;;;;;;;4989230;28;19910;-41
2023/08/06 16:33:13;;;;;;;;;;;;;;;;;;4989326;28;19910;-42
2023/08/06 16:35:39;;;;;;;;;;;;;;;;;;4988635;28;20033;-43
2023/08/06 16:38:06;;;;;;;;;;;;;;;;;;4988674;28;19921;-42
2023/08/06 16:40:32;;;;;;;;;;;;;;;;;;4988264;28;20395;-42
2023/08/06 16:42:58;;;;;;;;;;;;;;;;;;4988629;28;20008;-41
2023/08/06 16:45:23;;;;;;;;;;;;;;;;;;4988149;28;19926;-41
2023/08/06 16:47:49;;;;;;;;;;;;;;;;;;4988702;28;20346;-41
2023/08/06 16:50:16;;;;;;;;;;;;;;;;;;4988705;28;19913;-42
2023/08/06 16:52:42;;;;;;;;;;;;;;;;;;4988553;28;19941;-41
2023/08/06 16:55:07;;;;;;;;;;;;;;;;;;4983297;28;19956;-42
2023/08/06 16:57:33;;;;;;;;;;;;;;;;;;4985511;28;19914;-41
2023/08/06 16:59:59;;;;;;;;;;;;;;;;;;4987056;28;19944;-40
2023/08/06 17:02:25;;;;;;;;;;;;;;;;;;4987125;28;19968;-41
2023/08/06 17:04:51;;;;;;;;;;;;;;;;;;4988566;28;20463;-40
2023/08/06 17:07:17;;;;;;;;;;;;;;;;;;4986559;28;19997;-40
2023/08/06 17:09:43;;;;;;;;;;;;;;;;;;4985658;28;19914;-40
2023/08/06 17:12:09;;;;;;;;;;;;;;;;;;4987961;28;20404;-40
2023/08/06 17:14:35;;;;;;;;;;;;;;;;;;4981170;28;19920;-40
2023/08/06 17:17:00;;;;;;;;;;;;;;;;;;4975400;28;19988;-40
2023/08/06 17:19:26;;;;;;;;;;;;;;;;;;4984738;28;19960;-40
2023/08/06 17:21:52;;;;;;;;;;;;;;;;;;4982880;28;20319;-40
2023/08/06 17:24:18;;;;;;;;;;;;;;;;;;5000143;28;19956;-40
2023/08/06 17:26:44;;;;;;;;;;;;;;;;;;4984185;28;19964;-40
2023/08/06 17:29:10;;;;;;;;;;;;;;;;;;4993677;28;19996;-40
2023/08/06 17:31:36;;;;;;;;;;;;;;;;;;4987889;28;19914;-40
2023/08/06 17:34:02;;;;;;;;;;;;;;;;;;4985417;28;20339;-40
2023/08/06 17:36:28;;;;;;;;;;;;;;;;;;4985666;28;21297;-40
2023/08/06 17:38:54;;;;;;;;;;;;;;;;;;4984041;28;19913;-40
2023/08/06 17:41:19;;;;;;;;;;;;;;;;;;4991693;28;20287;-40
2023/08/06 17:43:45;;;;;;;;;;;;;;;;;;4996675;28;19968;-40
2023/08/06 17:46:11;;;;;;;;;;;;;;;;;;4997046;28;20329;-40
2023/08/06 17:48:37;;;;;;;;;;;;;;;;;;4987989;28;19910;-40
2023/08/06 17:51:03;;;;;;;;;;;;;;;;;;4978228;28;19953;-39
2023/08/06 17:53:29;;;;;;;;;;;;;;;;;;4984433;28;19914;-39
2023/08/06 17:55:55;;;;;;;;;;;;;;;;;;4986843;28;19988;-40
2023/08/06 17:58:21;;;;;;;;;;;;;;;;;;4983395;28;20008;-39
2023/08/06 18:00:49;;;;;;;;;;;;;;;;;;4983127;28;19918;-39
2023/08/06 18:03:16;;;;;;;;;;;;;;;;;;4985672;28;20017;-39
2023/08/06 18:05:42;;;;;;;;;;;;;;;;;;4982345;28;19918;-39
2023/08/06 18:08:08;;;;;;;;;;;;;;;;;;4976918;28;19977;-39
2023/08/06 18:10:34;;;;;;;;;;;;;;;;;;4985286;28;19914;-39
2023/08/06 18:13:00;;;;;;;;;;;;;;;;;;4985726;28;19918;-39
2023/08/06 18:15:28;;;;;;;;;;;;;;;;;;4985100;28;19918;-39
2023/08/06 18:17:54;;;;;;;;;;;;;;;;;;4989862;28;21786;-40
2023/08/06 18:20:20;;;;;;;;;;;;;;;;;;4988672;28;20032;-40
2023/08/06 18:22:45;;;;;;;;;;;;;;;;;;4981682;28;19922;-39
2023/08/06 18:25:11;;;;;;;;;;;;;;;;;;4985060;28;19925;-41
2023/08/06 18:27:37;;;;;;;;;;;;;;;;;;4986453;28;20027;-41
2023/08/06 18:30:03;;;;;;;;;;;;;;;;;;4983683;28;19922;-41
2023/08/06 18:32:29;;;;;;;;;;;;;;;;;;4988616;28;20104;-40
2023/08/06 18:34:55;;;;;;;;;;;;;;;;;;4988870;28;20033;-40
2023/08/06 18:37:21;;;;;;;;;;;;;;;;;;4988211;28;20471;-41
2023/08/06 18:39:47;;;;;;;;;;;;;;;;;;4987698;28;19920;-40
2023/08/06 18:42:13;;;;;;;;;;;;;;;;;;4987365;28;19918;-41
2023/08/06 18:44:38;;;;;;;;;;;;;;;;;;4988639;28;19914;-40
2023/08/06 18:47:04;;;;;;;;;;;;;;;;;;4989459;28;20000;-40
2023/08/06 18:49:30;;;;;;;;;;;;;;;;;;4989430;28;19913;-41
2023/08/06 18:51:56;;;;;;;;;;;;;;;;;;4988977;28;19914;-41
2023/08/06 18:54:23;;;;;;;;;;;;;;;;;;4983603;28;19917;-41
2023/08/06 18:56:48;;;;;;;;;;;;;;;;;;4986519;28;20381;-40
2023/08/06 18:59:19;;;;;;;;;;;;;;;;;;4987935;28;20001;-40
2023/08/06 19:01:45;;;;;;;;;;;;;;;;;;4987268;28;19914;-40
2023/08/06 19:04:11;;;;;;;;;;;;;;;;;;4989450;28;20548;-40
2023/08/06 19:06:37;;;;;;;;;;;;;;;;;;4986255;28;19933;-40
2023/08/06 19:09:03;;;;;;;;;;;;;;;;;;4983401;28;20414;-40
2023/08/06 19:11:29;;;;;;;;;;;;;;;;;;4988761;28;19918;-40
2023/08/06 19:13:55;;;;;;;;;;;;;;;;;;4989858;28;20281;-40
2023/08/06 19:16:21;;;;;;;;;;;;;;;;;;4986881;28;19920;-40
2023/08/06 19:18:47;;;;;;;;;;;;;;;;;;4989746;28;20642;-40
2023/08/06 19:21:12;;;;;;;;;;;;;;;;;;4978199;28;19917;-41
2023/08/06 19:23:38;;;;;;;;;;;;;;;;;;4968914;28;19917;-40
2023/08/06 19:26:04;;;;;;;;;;;;;;;;;;4987609;28;20504;-40
2023/08/06 19:28:30;;;;;;;;;;;;;;;;;;4988576;28;19917;-40
2023/08/06 19:30:57;;;;;;;;;;;;;;;;;;4988281;28;19920;-40
2023/08/06 19:33:23;;;;;;;;;;;;;;;;;;4988719;28;19909;-40
2023/08/06 19:35:49;;;;;;;;;;;;;;;;;;4989792;28;19917;-40
2023/08/06 19:38:15;;;;;;;;;;;;;;;;;;4988023;28;19934;-41
2023/08/06 19:40:41;;;;;;;;;;;;;;;;;;4987512;28;20387;-41
2023/08/06 19:43:07;;;;;;;;;;;;;;;;;;4988523;28;20368;-40
2023/08/06 19:45:33;;;;;;;;;;;;;;;;;;4989863;28;19961;-40
2023/08/06 19:47:59;;;;;;;;;;;;;;;;;;4988363;28;19915;-41
2023/08/06 19:50:25;;;;;;;;;;;;;;;;;;4986979;28;20004;-41
2023/08/06 19:52:51;;;;;;;;;;;;;;;;;;4989327;28;20008;-40
2023/08/06 19:55:17;;;;;;;;;;;;;;;;;;4989317;28;19914;-40
2023/08/06 19:57:43;;;;;;;;;;;;;;;;;;4988620;28;19955;-40
2023/08/06 20:00:09;;;;;;;;;;;;;;;;;;4987354;28;20348;-40
2023/08/06 20:02:35;;;;;;;;;;;;;;;;;;4988367;28;19948;-40
2023/08/06 20:05:01;;;;;;;;;;;;;;;;;;4988030;28;20604;-40
2023/08/06 20:07:27;;;;;;;;;;;;;;;;;;4988460;28;19909;-40
2023/08/06 20:09:53;;;;;;;;;;;;;;;;;;4989447;28;20004;-40
2023/08/06 20:12:19;;;;;;;;;;;;;;;;;;4989476;28;19972;-40
2023/08/06 20:14:45;;;;;;;;;;;;;;;;;;4987978;28;19967;-40
2023/08/06 20:17:11;;;;;;;;;;;;;;;;;;4987815;28;19918;-40
2023/08/06 20:19:37;;;;;;;;;;;;;;;;;;4985185;28;19914;-40
2023/08/06 20:22:03;;;;;;;;;;;;;;;;;;4980718;28;19913;-40
2023/08/06 20:24:28;;;;;;;;;;;;;;;;;;4987112;28;20331;-40
2023/08/06 20:26:56;;;;;;;;;;;;;;;;;;4987191;28;20381;-40
2023/08/06 20:29:22;;;;;;;;;;;;;;;;;;4985126;28;19920;-40
2023/08/06 20:31:48;;;;;;;;;;;;;;;;;;4989085;28;20585;-40
2023/08/06 20:34:13;;;;;;;;;;;;;;;;;;4988562;28;19924;-40
2023/08/06 20:36:39;;;;;;;;;;;;;;;;;;4986263;28;20383;-40
2023/08/06 20:39:05;;;;;;;;;;;;;;;;;;4986890;28;19922;-40
2023/08/06 20:41:31;;;;;;;;;;;;;;;;;;4986606;28;20544;-40
2023/08/06 20:43:57;;;;;;;;;;;;;;;;;;4985878;28;19957;-40
2023/08/06 20:46:23;;;;;;;;;;;;;;;;;;4988191;28;19914;-40
2023/08/06 20:48:49;;;;;;;;;;;;;;;;;;4989412;28;19918;-40
2023/08/06 20:51:15;;;;;;;;;;;;;;;;;;4986312;28;19914;-40
2023/08/06 20:53:41;;;;;;;;;;;;;;;;;;4988974;28;19921;-40
2023/08/06 20:56:07;;;;;;;;;;;;;;;;;;4984057;28;19910;-40
2023/08/06 20:58:33;;;;;;;;;;;;;;;;;;4986907;28;19914;-40
2023/08/06 21:00:59;;;;;;;;;;;;;;;;;;4985878;28;19941;-40
2023/08/06 21:03:25;;;;;;;;;;;;;;;;;;4986735;28;19968;-40
2023/08/06 21:05:51;;;;;;;;;;;;;;;;;;4988898;28;19914;-40
2023/08/06 21:08:17;;;;;;;;;;;;;;;;;;4987029;28;19910;-40
2023/08/06 21:10:43;;;;;;;;;;;;;;;;;;4989232;28;20508;-40
2023/08/06 21:13:09;;;;;;;;;;;;;;;;;;4988442;28;19932;-41
2023/08/06 21:15:34;;;;;;;;;;;;;;;;;;4989334;28;19951;-40
2023/08/06 21:18:00;;;;;;;;;;;;;;;;;;4988768;28;19921;-40
2023/08/06 21:20:26;;;;;;;;;;;;;;;;;;4988838;28;20544;-41
2023/08/06 21:22:52;;;;;;;;;;;;;;;;;;4986785;28;20312;-40
2023/08/06 21:25:18;;;;;;;;;;;;;;;;;;4977303;28;19976;-40
2023/08/06 21:27:47;;;;;;;;;;;;;;;;;;4986740;28;19913;-40
2023/08/06 21:30:13;;;;;;;;;;;;;;;;;;4987556;28;19921;-41
2023/08/06 21:32:39;;;;;;;;;;;;;;;;;;4987215;28;19918;-41
2023/08/06 21:35:05;;;;;;;;;;;;;;;;;;4988204;28;19913;-41
2023/08/06 21:37:31;;;;;;;;;;;;;;;;;;4987518;28;19914;-41
2023/08/06 21:39:59;;;;;;;;;;;;;;;;;;4987839;28;19910;-41
2023/08/06 21:42:25;;;;;;;;;;;;;;;;;;4987676;28;19909;-41
2023/08/06 21:44:51;;;;;;;;;;;;;;;;;;4991647;28;20297;-41
2023/08/06 21:47:17;;;;;;;;;;;;;;;;;;4991904;28;19953;-41
2023/08/06 21:49:43;;;;;;;;;;;;;;;;;;4992503;28;20376;-41
2023/08/06 21:52:09;;;;;;;;;;;;;;;;;;4991435;28;19906;-41